createdAt,value
2017-05-30T00:09:00.843Z,100
2017-05-30T00:19:15.655Z,97.8
2017-05-30T00:29:30.791Z,94.9
2017-05-30T00:39:45.312Z,95
2017-05-30T00:50:00.053Z,95
2017-05-30T01:00:15.004Z,95.8
2017-05-30T01:10:30.118Z,97.1
2017-05-30T01:20:44.213Z,99.8
2017-05-30T01:30:58.501Z,100
2017-05-30T01:41:12.610Z,100
2017-05-30T01:51:28.387Z,100
2017-05-30T02:01:43.033Z,100
2017-05-30T02:11:58.339Z,100
2017-05-30T02:22:14.047Z,100
2017-05-30T02:32:29.442Z,100
2017-05-30T02:42:44.144Z,100
2017-05-30T02:52:58.319Z,100
2017-05-30T03:03:13.837Z,100
2017-05-30T03:13:28.756Z,100
2017-05-30T03:23:44.547Z,100
2017-05-30T03:33:58.791Z,100
2017-05-30T03:44:12.628Z,100
2017-05-30T03:54:28.087Z,100
2017-05-30T04:04:43.028Z,100
2017-05-30T04:14:57.344Z,100
2017-05-30T04:25:12.859Z,100
2017-05-30T04:35:27.893Z,100
2017-05-30T04:45:43.082Z,100
2017-05-30T04:55:58.103Z,100
2017-05-30T05:06:12.602Z,100
2017-05-30T05:16:27.041Z,100
2017-05-30T05:26:41.635Z,100
2017-05-30T05:36:56.011Z,100
2017-05-30T05:47:11.648Z,100
2017-05-30T05:57:26.775Z,100
2017-05-30T06:07:40.727Z,100
2017-05-30T06:17:56.431Z,100
2017-05-30T06:28:11.923Z,99.9
2017-05-30T06:38:27.257Z,97.3
2017-05-30T06:48:41.523Z,96.8
2017-05-30T06:58:55.434Z,97.3
2017-05-30T07:09:09.680Z,96.9
2017-05-30T07:19:24.597Z,96.8
2017-05-30T07:29:40.251Z,94.8
2017-05-30T07:39:54.475Z,92
2017-05-30T07:50:09.851Z,90.5
2017-05-30T08:00:25.720Z,89.3
2017-05-30T08:10:40.757Z,87.7
2017-05-30T08:20:55.757Z,85.9
2017-05-30T08:31:10.881Z,84.1
2017-05-30T08:41:26.081Z,83.1
2017-05-30T08:51:41.228Z,82.6
2017-05-30T09:01:56.464Z,80.5
2017-05-30T09:12:12.127Z,81.2
2017-05-30T09:22:27.252Z,80.3
2017-05-30T09:32:42.325Z,82.9
2017-05-30T09:42:56.599Z,82.3
2017-05-30T09:53:10.985Z,83.3
2017-05-30T10:03:25.208Z,82.5
2017-05-30T10:13:39.587Z,83.1
2017-05-30T10:23:55.342Z,83.8
2017-05-30T10:34:10.541Z,80.3
2017-05-30T10:44:24.704Z,77.5
2017-05-30T10:54:40.046Z,75.5
2017-05-30T11:04:54.496Z,74.5
2017-05-30T11:15:08.990Z,76.1
2017-05-30T11:25:24.336Z,78.2
2017-05-30T11:35:39.804Z,80.8
2017-05-30T11:45:54.251Z,79.9
2017-05-30T11:56:09.928Z,78.2
2017-05-30T12:06:24.284Z,89.1
2017-05-30T12:16:39.512Z,98.1
2017-05-30T12:26:53.788Z,100
2017-05-30T12:37:09.650Z,100
2017-05-30T12:47:24.811Z,97
2017-05-30T12:57:38.884Z,94.6
2017-05-30T13:07:54.523Z,98.2
2017-05-30T13:18:10.088Z,100
2017-05-30T13:28:24.986Z,100
2017-05-30T13:38:40.642Z,100
2017-05-30T13:48:55.509Z,96.7
2017-05-30T13:59:10.422Z,95.8
2017-05-30T14:09:25.186Z,94.3
2017-05-30T14:19:39.639Z,96.2
2017-05-30T14:29:54.852Z,95
2017-05-30T14:40:08.909Z,91.9
2017-05-30T14:50:22.973Z,93
2017-05-30T15:00:38.542Z,97
2017-05-30T15:10:54.351Z,99
2017-05-30T15:21:09.380Z,100
2017-05-30T15:31:23.629Z,100
2017-05-30T15:41:38.570Z,100
2017-05-30T15:51:53.494Z,94.4
2017-05-30T16:02:09.109Z,89.8
2017-05-30T16:12:24.364Z,89.6
2017-05-30T16:22:40.002Z,90.3
2017-05-30T16:32:54.720Z,91.2
2017-05-30T16:43:08.584Z,96.4
2017-05-30T16:53:24.367Z,99.9
2017-05-30T17:03:39.647Z,99.2
2017-05-30T17:13:54.550Z,97.3
2017-05-30T17:24:08.933Z,97.9
2017-05-30T17:34:24.041Z,94.1
2017-05-30T17:44:39.186Z,96.3
2017-05-30T17:54:54.865Z,97.4
2017-05-30T18:05:08.754Z,96.8
2017-05-30T18:15:24.388Z,97.1
2017-05-30T18:25:38.992Z,98.1
2017-05-30T18:35:53.730Z,94.9
2017-05-30T18:46:08.471Z,93.5
2017-05-30T18:56:23.469Z,92.2
2017-05-30T19:06:38.151Z,91.9
2017-05-30T19:16:53.555Z,91.5
2017-05-30T19:27:07.663Z,89.2
2017-05-30T19:37:21.573Z,87.7
2017-05-30T19:47:36.789Z,88.3
2017-05-30T19:57:50.701Z,88
2017-05-30T20:08:06.220Z,88.9
2017-05-30T20:18:21.957Z,90.8
2017-05-30T20:28:35.768Z,90.4
2017-05-30T20:38:50.680Z,90.5
2017-05-30T20:49:05.356Z,90.8
2017-05-30T20:59:19.259Z,92.5
2017-05-30T21:09:34.690Z,93.7
2017-05-30T21:19:48.737Z,94.1
2017-05-30T21:30:03.235Z,92.8
2017-05-30T21:40:18.859Z,92.6
2017-05-30T21:50:33.598Z,92
2017-05-30T22:00:48.825Z,93.3
2017-05-30T22:11:03.345Z,95.1
2017-05-30T22:21:17.269Z,97.2
2017-05-30T22:31:32.075Z,99
2017-05-30T22:41:46.861Z,99.6
2017-05-30T22:52:00.816Z,100
2017-05-30T23:02:16.086Z,100
2017-05-30T23:12:31.295Z,100
2017-05-30T23:22:46.050Z,100
2017-05-30T23:33:01.431Z,100
2017-05-30T23:43:16.151Z,100
2017-05-30T23:53:30.420Z,100
